Time;durP1;ratioP1;P1;durP2;ratioP2;P2;SDS_P1;SDS_P2;PMS_P1;PMS_P2;Temp;Humidity;BMP_temperature;BMP_pressure;BME280_temperature;BME280_humidity;BME280_pressure;Samples;Min_cycle;Max_cycle;Signal;HPM_P1;HPM_P2
2022/06/07 00:00:23;;;;;;;;;;;12.00;99.90;;;;;;5037169;28;19950;-68
2022/06/07 00:02:49;;;;;;;;;;;12.00;99.90;;;;;;5037242;28;19920;-68
2022/06/07 00:05:18;;;;;;;;;;;12.00;99.90;;;;;;5054724;28;20330;-68
2022/06/07 00:07:45;;;;;;;;;;;12.00;99.90;;;;;;5036708;28;19925;-68
2022/06/07 00:10:11;;;;;;;;;;;12.00;99.90;;;;;;5044464;28;19920;-69
2022/06/07 00:12:38;;;;;;;;;;;12.00;99.90;;;;;;5056084;28;19924;-69
2022/06/07 00:15:07;;;;;;;;;;;12.00;99.90;;;;;;5057173;28;19973;-67
2022/06/07 00:17:33;;;;;;;;;;;12.00;99.90;;;;;;5074725;28;19927;-68
2022/06/07 00:20:00;;;;;;;;;;;12.00;99.90;;;;;;5056004;28;19920;-68
2022/06/07 00:22:28;;;;;;;;;;;12.00;99.90;;;;;;5074682;28;19981;-68
2022/06/07 00:24:55;;;;;;;;;;;12.00;99.90;;;;;;5074494;28;19928;-68
2022/06/07 00:27:22;;;;;;;;;;;12.00;99.90;;;;;;5055317;28;20380;-69
2022/06/07 00:29:49;;;;;;;;;;;12.00;99.90;;;;;;5074615;28;19924;-68
2022/06/07 00:32:17;;;;;;;;;;;12.00;99.90;;;;;;5074767;28;19927;-68
2022/06/07 00:34:44;;;;;;;;;;;12.00;99.90;;;;;;5055846;28;19920;-69
2022/06/07 00:37:10;;;;;;;;;;;12.00;99.90;;;;;;5074363;28;19924;-69
2022/06/07 00:39:39;;;;;;;;;;;12.00;99.90;;;;;;5055774;28;19921;-70
2022/06/07 00:42:05;;;;;;;;;;;12.00;99.90;;;;;;5035634;28;19978;-68
2022/06/07 00:44:35;;;;;;;;;;;12.00;99.90;;;;;;5054130;28;20368;-69
2022/06/07 00:47:02;;;;;;;;;;;12.10;99.90;;;;;;5054058;28;20328;-69
2022/06/07 00:49:31;;;;;;;;;;;11.90;99.90;;;;;;5053875;28;19925;-69
2022/06/07 00:51:58;;;;;;;;;;;12.00;99.90;;;;;;5054187;28;19921;-69
2022/06/07 00:54:25;;;;;;;;;;;12.00;99.90;;;;;;5054037;28;19921;-67
2022/06/07 00:56:54;;;;;;;;;;;12.00;99.90;;;;;;5073428;28;19920;-68
2022/06/07 00:59:20;;;;;;;;;;;12.00;99.90;;;;;;5056426;28;19920;-69
2022/06/07 01:01:47;;;;;;;;;;;12.00;99.90;;;;;;5073211;28;20295;-69
2022/06/07 01:04:14;;;;;;;;;;;12.00;99.90;;;;;;5056140;28;20265;-70
2022/06/07 01:12:07;;;;;;;;;;;12.00;99.90;;;;;;5053771;28;20454;-69
2022/06/07 01:14:34;;;;;;;;;;;12.00;99.90;;;;;;5053871;28;19921;-68
2022/06/07 01:17:01;;;;;;;;;;;12.00;99.90;;;;;;5052558;28;20376;-69
2022/06/07 01:19:27;;;;;;;;;;;12.00;99.90;;;;;;5036284;28;19929;-69
2022/06/07 01:21:55;;;;;;;;;;;12.00;99.90;;;;;;5053142;28;20354;-69
2022/06/07 01:24:22;;;;;;;;;;;12.00;99.90;;;;;;5052861;28;19921;-68
2022/06/07 01:26:50;;;;;;;;;;;12.00;99.90;;;;;;5053650;28;19920;-68
2022/06/07 01:29:18;;;;;;;;;;;12.00;99.90;;;;;;5053475;28;19920;-69
2022/06/07 01:31:45;;;;;;;;;;;12.00;99.90;;;;;;5052510;28;20273;-69
2022/06/07 01:34:11;;;;;;;;;;;12.00;99.90;;;;;;5053445;28;20360;-68
2022/06/07 01:36:38;;;;;;;;;;;12.00;99.90;;;;;;5053141;28;19927;-68
2022/06/07 01:41:57;;;;;;;;;;;12.00;99.90;;;;;;5035821;28;19931;-68
2022/06/07 01:44:24;;;;;;;;;;;12.10;99.90;;;;;;5035015;28;19979;-69
2022/06/07 01:46:51;;;;;;;;;;;12.10;99.90;;;;;;5053061;28;20380;-69
2022/06/07 01:49:18;;;;;;;;;;;12.10;99.90;;;;;;5035844;28;20039;-68
2022/06/07 01:51:45;;;;;;;;;;;12.10;99.90;;;;;;5052569;28;19921;-68
2022/06/07 01:54:14;;;;;;;;;;;12.20;99.90;;;;;;5053279;28;19924;-69
2022/06/07 01:56:41;;;;;;;;;;;12.10;99.90;;;;;;5053378;28;19921;-69
2022/06/07 01:59:08;;;;;;;;;;;12.20;99.90;;;;;;5052468;28;19925;-69
2022/06/07 02:01:35;;;;;;;;;;;12.20;99.90;;;;;;5071447;28;19924;-68
2022/06/07 02:04:02;;;;;;;;;;;12.20;99.90;;;;;;5072919;28;19920;-68
2022/06/07 02:06:29;;;;;;;;;;;12.20;99.90;;;;;;5072772;28;19924;-69
2022/06/07 02:08:56;;;;;;;;;;;12.30;99.90;;;;;;5073172;28;19920;-68
2022/06/07 02:11:25;;;;;;;;;;;12.30;99.90;;;;;;5056427;28;19927;-68
2022/06/07 02:13:52;;;;;;;;;;;12.30;99.90;;;;;;5058785;28;19970;-69
2022/06/07 02:16:20;;;;;;;;;;;12.30;99.90;;;;;;5040908;28;20291;-68
2022/06/07 02:18:47;;;;;;;;;;;12.30;99.90;;;;;;5056928;28;19925;-68
2022/06/07 02:21:14;;;;;;;;;;;12.30;99.90;;;;;;5056693;28;19975;-68
2022/06/07 02:23:41;;;;;;;;;;;12.30;99.90;;;;;;5038933;28;19928;-68
2022/06/07 02:26:12;;;;;;;;;;;12.30;99.90;;;;;;5037913;28;19928;-69
2022/06/07 02:28:41;;;;;;;;;;;12.30;99.90;;;;;;5049366;28;19920;-69
2022/06/07 02:31:08;;;;;;;;;;;12.30;99.90;;;;;;5058880;28;19978;-68
2022/06/07 02:33:36;;;;;;;;;;;12.30;99.90;;;;;;5075949;28;20294;-69
2022/06/07 02:36:04;;;;;;;;;;;12.30;99.90;;;;;;5076883;28;19974;-68
2022/06/07 02:38:31;;;;;;;;;;;12.40;99.90;;;;;;5058688;28;19920;-69
2022/06/07 02:40:58;;;;;;;;;;;12.40;99.90;;;;;;5075694;28;19978;-68
2022/06/07 02:43:24;;;;;;;;;;;12.40;99.90;;;;;;5076717;28;20334;-68
2022/06/07 02:45:53;;;;;;;;;;;12.40;99.90;;;;;;5077030;28;19920;-68
2022/06/07 02:48:20;;;;;;;;;;;12.30;99.90;;;;;;5075792;28;19920;-69
2022/06/07 02:50:46;;;;;;;;;;;12.30;99.90;;;;;;5058745;28;19920;-69
2022/06/07 02:53:13;;;;;;;;;;;12.30;99.90;;;;;;5056675;28;19970;-69
2022/06/07 02:55:40;;;;;;;;;;;12.30;99.90;;;;;;5055743;28;20003;-69
2022/06/07 02:58:07;;;;;;;;;;;12.20;99.90;;;;;;5052695;28;20372;-69
2022/06/07 03:00:33;;;;;;;;;;;12.30;99.90;;;;;;5058304;28;19924;-70
2022/06/07 03:03:02;;;;;;;;;;;12.30;99.90;;;;;;5075683;28;19982;-69
2022/06/07 03:05:28;;;;;;;;;;;12.30;99.90;;;;;;5070649;28;19978;-69
2022/06/07 03:07:55;;;;;;;;;;;12.20;99.90;;;;;;5038095;28;20297;-70
2022/06/07 03:10:22;;;;;;;;;;;12.20;99.90;;;;;;5048499;28;19920;-70
2022/06/07 03:12:49;;;;;;;;;;;12.30;99.90;;;;;;5055995;28;20327;-69
2022/06/07 03:15:16;;;;;;;;;;;12.20;99.90;;;;;;5037494;28;19951;-70
2022/06/07 03:17:43;;;;;;;;;;;12.30;99.90;;;;;;5038371;28;20360;-69
2022/06/07 03:20:12;;;;;;;;;;;12.30;99.90;;;;;;5038243;28;19928;-69
2022/06/07 03:22:39;;;;;;;;;;;12.30;99.90;;;;;;5066002;28;20372;-68
2022/06/07 03:25:07;;;;;;;;;;;12.30;99.90;;;;;;5057737;28;19973;-69
2022/06/07 03:27:35;;;;;;;;;;;12.40;99.90;;;;;;5057654;28;19951;-69
2022/06/07 03:30:01;;;;;;;;;;;12.30;99.90;;;;;;5057045;28;20260;-70
2022/06/07 03:32:28;;;;;;;;;;;12.40;99.90;;;;;;5075702;28;20299;-69
2022/06/07 03:34:55;;;;;;;;;;;12.40;99.90;;;;;;5075255;28;19974;-70
2022/06/07 03:37:23;;;;;;;;;;;12.40;99.90;;;;;;5062068;28;20296;-69
2022/06/07 03:39:50;;;;;;;;;;;12.40;99.90;;;;;;5037953;28;19928;-69
2022/06/07 03:42:17;;;;;;;;;;;12.40;99.90;;;;;;5037248;28;19921;-69
2022/06/07 03:44:48;;;;;;;;;;;12.40;99.90;;;;;;5055919;28;19920;-69
2022/06/07 03:47:15;;;;;;;;;;;12.40;99.90;;;;;;5056138;28;20322;-69
2022/06/07 03:49:41;;;;;;;;;;;12.40;99.90;;;;;;5045019;28;19920;-69
2022/06/07 03:52:08;;;;;;;;;;;12.40;99.90;;;;;;5063683;28;19925;-70
2022/06/07 03:54:36;;;;;;;;;;;12.30;99.90;;;;;;5071563;28;19969;-71
2022/06/07 03:57:03;;;;;;;;;;;12.20;99.90;;;;;;5064520;28;19973;-70
2022/06/07 03:59:30;;;;;;;;;;;12.20;99.90;;;;;;5048022;28;19924;-68
2022/06/07 04:01:57;;;;;;;;;;;12.10;99.90;;;;;;5066785;28;19920;-70
2022/06/07 04:04:24;;;;;;;;;;;12.10;99.90;;;;;;5052717;28;19931;-70
2022/06/07 04:09:31;;;;;;;;;;;11.90;99.90;;;;;;5046179;28;19916;-70
2022/06/07 04:11:59;;;;;;;;;;;11.80;99.90;;;;;;5047850;28;19932;-70
2022/06/07 04:14:26;;;;;;;;;;;11.80;99.90;;;;;;5053073;28;19966;-69
2022/06/07 04:16:52;;;;;;;;;;;11.70;99.90;;;;;;5047270;28;19928;-70
2022/06/07 04:19:19;;;;;;;;;;;11.80;99.90;;;;;;5064674;28;19973;-70
2022/06/07 04:21:46;;;;;;;;;;;11.70;99.90;;;;;;5043914;28;19925;-70
2022/06/07 04:24:12;;;;;;;;;;;11.80;99.90;;;;;;5062145;28;20434;-69
2022/06/07 04:26:39;;;;;;;;;;;11.60;99.90;;;;;;5061527;28;19931;-69
2022/06/07 04:29:07;;;;;;;;;;;11.60;99.90;;;;;;5065853;28;19920;-70
2022/06/07 04:31:34;;;;;;;;;;;11.50;99.90;;;;;;5066731;28;20274;-69
2022/06/07 04:34:00;;;;;;;;;;;11.50;99.90;;;;;;5065168;28;19920;-69
2022/06/07 04:36:28;;;;;;;;;;;11.50;99.90;;;;;;5063483;28;19924;-69
2022/06/07 04:38:56;;;;;;;;;;;11.50;99.90;;;;;;5065792;28;20324;-69
2022/06/07 04:41:24;;;;;;;;;;;11.50;99.90;;;;;;5051590;28;19929;-71
2022/06/07 04:43:51;;;;;;;;;;;11.50;99.90;;;;;;5067413;28;19924;-69
2022/06/07 04:46:20;;;;;;;;;;;11.60;99.90;;;;;;5048452;28;19979;-70
2022/06/07 04:48:48;;;;;;;;;;;11.60;99.90;;;;;;5063052;28;19970;-69
2022/06/07 04:51:16;;;;;;;;;;;11.60;99.90;;;;;;5051083;28;19998;-71
2022/06/07 04:53:43;;;;;;;;;;;11.60;99.90;;;;;;5048690;28;20365;-70
2022/06/07 04:56:10;;;;;;;;;;;11.60;99.90;;;;;;5064313;28;19931;-70
2022/06/07 04:58:37;;;;;;;;;;;11.70;99.90;;;;;;5047781;28;19944;-71
2022/06/07 05:01:08;;;;;;;;;;;11.80;99.90;;;;;;5066363;28;20329;-70
2022/06/07 05:03:36;;;;;;;;;;;11.80;99.90;;;;;;5065582;28;19928;-70
2022/06/07 05:06:03;;;;;;;;;;;11.80;99.90;;;;;;5048441;28;20346;-70
2022/06/07 05:08:30;;;;;;;;;;;11.90;99.90;;;;;;5046962;28;19924;-70
2022/06/07 05:10:59;;;;;;;;;;;12.00;99.90;;;;;;5067658;28;19966;-70
2022/06/07 05:13:25;;;;;;;;;;;11.90;99.90;;;;;;5037084;28;20325;-71
2022/06/07 05:15:56;;;;;;;;;;;12.00;99.90;;;;;;5053103;28;19974;-69
2022/06/07 05:18:22;;;;;;;;;;;12.00;99.90;;;;;;5052161;28;19968;-69
2022/06/07 05:20:50;;;;;;;;;;;12.00;99.90;;;;;;5052816;28;19921;-70
2022/06/07 05:23:17;;;;;;;;;;;12.10;99.90;;;;;;5051667;28;20387;-69
2022/06/07 05:25:52;;;;;;;;;;;12.10;99.90;;;;;;5062279;28;19921;-70
2022/06/07 05:28:19;;;;;;;;;;;12.20;99.90;;;;;;5053588;28;20323;-70
2022/06/07 05:30:46;;;;;;;;;;;12.20;99.90;;;;;;5034947;28;20008;-69
2022/06/07 05:33:13;;;;;;;;;;;12.20;99.90;;;;;;5036050;28;19921;-69
2022/06/07 05:35:39;;;;;;;;;;;12.20;99.90;;;;;;5053125;28;19924;-70
2022/06/07 05:38:09;;;;;;;;;;;12.20;99.90;;;;;;5035324;28;20356;-70
2022/06/07 05:40:36;;;;;;;;;;;12.20;99.90;;;;;;5036047;28;19924;-70
2022/06/07 05:43:03;;;;;;;;;;;12.20;99.90;;;;;;5052555;28;20001;-69
2022/06/07 05:45:30;;;;;;;;;;;12.30;99.90;;;;;;5035356;28;19925;-71
2022/06/07 05:47:57;;;;;;;;;;;12.30;99.90;;;;;;5053545;28;19920;-69
2022/06/07 05:50:25;;;;;;;;;;;12.30;99.90;;;;;;5052605;28;20328;-70
2022/06/07 05:52:51;;;;;;;;;;;12.20;99.90;;;;;;5035274;28;20020;-69
2022/06/07 05:55:20;;;;;;;;;;;12.20;99.90;;;;;;5035240;28;20373;-69
2022/06/07 05:57:50;;;;;;;;;;;12.20;99.90;;;;;;5044517;28;19982;-70
2022/06/07 06:00:17;;;;;;;;;;;12.00;99.90;;;;;;5053404;28;19967;-70
2022/06/07 06:02:44;;;;;;;;;;;12.00;99.90;;;;;;5034996;28;19978;-70
2022/06/07 06:05:11;;;;;;;;;;;11.90;99.90;;;;;;5035142;28;20373;-70
2022/06/07 06:10:19;;;;;;;;;;;11.80;99.90;;;;;;5052999;28;19974;-68
2022/06/07 06:10:25;;;;;;;;;;;11.80;99.90;;;;;;5052635;28;20004;-69
2022/06/07 06:12:52;;;;;;;;;;;11.70;99.90;;;;;;5052503;28;19920;-70
2022/06/07 06:15:19;;;;;;;;;;;11.70;99.90;;;;;;5035401;28;19924;-69
2022/06/07 06:17:46;;;;;;;;;;;11.60;99.90;;;;;;5035226;28;19921;-70
2022/06/07 06:20:13;;;;;;;;;;;11.60;99.90;;;;;;5045677;28;20018;-70
2022/06/07 06:22:39;;;;;;;;;;;11.50;99.90;;;;;;5054730;28;19985;-70
2022/06/07 06:25:07;;;;;;;;;;;11.50;99.90;;;;;;5044323;28;20023;-69
2022/06/07 06:27:35;;;;;;;;;;;11.50;99.90;;;;;;5050458;28;20343;-69
2022/06/07 06:30:02;;;;;;;;;;;11.50;99.90;;;;;;5043642;28;20384;-69
2022/06/07 06:32:29;;;;;;;;;;;11.50;99.90;;;;;;5068461;28;19927;-70
2022/06/07 06:34:56;;;;;;;;;;;11.50;99.90;;;;;;5065195;28;20265;-69
2022/06/07 06:37:22;;;;;;;;;;;11.50;99.90;;;;;;5053370;28;20061;-71
2022/06/07 06:39:49;;;;;;;;;;;11.60;99.90;;;;;;5052238;28;19921;-70
2022/06/07 06:42:16;;;;;;;;;;;11.60;99.90;;;;;;5035421;28;19967;-70
2022/06/07 06:44:44;;;;;;;;;;;11.70;99.90;;;;;;5052604;28;19925;-69
2022/06/07 06:47:12;;;;;;;;;;;11.80;99.90;;;;;;5021081;28;20262;-71
2022/06/07 06:49:40;;;;;;;;;;;11.90;99.90;;;;;;5033023;28;19921;-69
2022/06/07 06:52:07;;;;;;;;;;;11.90;99.90;;;;;;5032577;28;19959;-69
2022/06/07 06:54:34;;;;;;;;;;;12.10;99.90;;;;;;5014727;28;19921;-69
2022/06/07 06:57:01;;;;;;;;;;;12.20;99.90;;;;;;5016039;28;20366;-69
2022/06/07 06:59:27;;;;;;;;;;;12.30;99.90;;;;;;5017884;28;19964;-69
2022/06/07 07:01:55;;;;;;;;;;;12.40;99.90;;;;;;5018071;28;19925;-69
2022/06/07 07:04:22;;;;;;;;;;;12.50;99.90;;;;;;5046463;28;19921;-69
2022/06/07 07:06:49;;;;;;;;;;;12.50;99.90;;;;;;5029748;28;20351;-70
2022/06/07 07:09:17;;;;;;;;;;;12.50;99.90;;;;;;5041894;28;19921;-69
2022/06/07 07:11:45;;;;;;;;;;;12.50;99.90;;;;;;5027962;28;19971;-71
2022/06/07 07:14:12;;;;;;;;;;;12.60;99.90;;;;;;5036093;28;19925;-69
2022/06/07 07:16:42;;;;;;;;;;;12.80;99.90;;;;;;5039423;28;19924;-69
2022/06/07 07:19:10;;;;;;;;;;;12.80;99.90;;;;;;5038398;28;20011;-70
2022/06/07 07:21:39;;;;;;;;;;;13.00;99.90;;;;;;5023831;28;19921;-69
2022/06/07 07:24:08;;;;;;;;;;;13.20;99.90;;;;;;5039199;28;19928;-69
2022/06/07 07:26:36;;;;;;;;;;;13.20;99.90;;;;;;5078805;28;20291;-69
2022/06/07 07:29:03;;;;;;;;;;;13.40;99.90;;;;;;5095405;28;19920;-68
2022/06/07 07:31:31;;;;;;;;;;;13.50;99.90;;;;;;5080541;28;20007;-70
2022/06/07 07:33:59;;;;;;;;;;;13.70;99.90;;;;;;5055597;28;19920;-68
2022/06/07 07:36:27;;;;;;;;;;;13.70;99.90;;;;;;5045561;28;19974;-69
2022/06/07 07:38:54;;;;;;;;;;;13.90;99.90;;;;;;5074770;28;19986;-69
2022/06/07 07:41:22;;;;;;;;;;;13.90;99.90;;;;;;5058444;28;19970;-69
2022/06/07 07:43:49;;;;;;;;;;;14.20;99.90;;;;;;5045433;28;19920;-70
2022/06/07 07:46:16;;;;;;;;;;;14.20;99.90;;;;;;5070861;28;20372;-69
2022/06/07 07:48:43;;;;;;;;;;;14.00;99.90;;;;;;5095526;28;19971;-69
2022/06/07 07:51:13;;;;;;;;;;;13.90;99.90;;;;;;5064931;28;19978;-70
2022/06/07 07:53:42;;;;;;;;;;;13.90;99.90;;;;;;5038401;28;19921;-69
2022/06/07 07:56:09;;;;;;;;;;;13.80;99.90;;;;;;5055060;28;19924;-69
2022/06/07 07:58:36;;;;;;;;;;;13.70;99.90;;;;;;5054774;28;19920;-69
2022/06/07 08:01:07;;;;;;;;;;;13.60;99.90;;;;;;5036791;28;20384;-69
2022/06/07 08:03:34;;;;;;;;;;;13.60;99.90;;;;;;5049306;28;19924;-69
2022/06/07 08:06:01;;;;;;;;;;;13.60;99.90;;;;;;5094920;28;19920;-69
2022/06/07 08:08:27;;;;;;;;;;;13.60;99.90;;;;;;5076846;28;20390;-69
2022/06/07 08:10:56;;;;;;;;;;;13.60;99.90;;;;;;5076396;28;19924;-70
2022/06/07 08:13:23;;;;;;;;;;;13.50;99.90;;;;;;5075354;28;19920;-69
2022/06/07 08:15:50;;;;;;;;;;;13.50;99.90;;;;;;5060740;28;19924;-69
2022/06/07 08:18:16;;;;;;;;;;;13.70;99.90;;;;;;5074161;28;20272;-68
2022/06/07 08:20:46;;;;;;;;;;;13.90;99.90;;;;;;5068329;28;19920;-69
2022/06/07 08:23:13;;;;;;;;;;;14.00;99.90;;;;;;5036863;28;19925;-70
2022/06/07 08:25:40;;;;;;;;;;;14.20;99.90;;;;;;5035807;28;19921;-70
2022/06/07 08:28:08;;;;;;;;;;;14.40;99.90;;;;;;5054805;28;19974;-70
2022/06/07 08:30:36;;;;;;;;;;;14.50;99.90;;;;;;5036591;28;19925;-69
2022/06/07 08:37:33;;;;;;;;;;;14.50;99.90;;;;;;5036327;28;19970;-70
2022/06/07 08:38:34;;;;;;;;;;;14.70;99.90;;;;;;5075959;28;19916;-70
2022/06/07 08:41:01;;;;;;;;;;;14.70;99.90;;;;;;5066481;28;19920;-69
2022/06/07 08:43:29;;;;;;;;;;;14.80;99.90;;;;;;5054067;28;19974;-69
2022/06/07 08:45:57;;;;;;;;;;;15.10;99.90;;;;;;5036218;28;19928;-70
2022/06/07 08:48:26;;;;;;;;;;;15.50;99.90;;;;;;5052857;28;19920;-70
2022/06/07 08:50:56;;;;;;;;;;;15.80;99.90;;;;;;5036550;28;20430;-70
2022/06/07 08:53:25;;;;;;;;;;;15.90;99.90;;;;;;5035612;28;19928;-70
2022/06/07 08:55:53;;;;;;;;;;;15.90;99.90;;;;;;5054217;28;20384;-69
2022/06/07 08:58:23;;;;;;;;;;;15.80;99.90;;;;;;5036149;28;19928;-70
2022/06/07 09:00:53;;;;;;;;;;;15.70;99.90;;;;;;5053421;28;19925;-70
2022/06/07 09:03:37;;;;;;;;;;;15.60;99.90;;;;;;5054147;28;19921;-70
2022/06/07 09:06:05;;;;;;;;;;;15.90;99.90;;;;;;5053432;28;19920;-69
2022/06/07 09:08:34;;;;;;;;;;;15.90;99.90;;;;;;5052646;28;19935;-70
2022/06/07 09:13:47;;;;;;;;;;;16.20;99.90;;;;;;5069593;28;19963;-71
2022/06/07 09:16:15;;;;;;;;;;;16.10;99.90;;;;;;5049732;28;20364;-71
2022/06/07 09:18:43;;;;;;;;;;;16.10;99.90;;;;;;5067297;28;20395;-69
2022/06/07 09:21:17;;;;;;;;;;;15.90;99.90;;;;;;5051238;28;19947;-70
2022/06/07 09:23:45;;;;;;;;;;;15.80;99.90;;;;;;5060918;28;19924;-70
2022/06/07 09:26:15;;;;;;;;;;;15.80;99.90;;;;;;5036717;28;19994;-70
2022/06/07 09:28:42;;;;;;;;;;;15.60;99.90;;;;;;5063836;28;20444;-70
2022/06/07 09:31:10;;;;;;;;;;;15.40;99.90;;;;;;5048293;28;19992;-71
2022/06/07 09:33:49;;;;;;;;;;;15.30;99.90;;;;;;5049293;28;19928;-71
2022/06/07 09:36:18;;;;;;;;;;;15.10;99.90;;;;;;5051833;28;19928;-71
2022/06/07 09:38:47;;;;;;;;;;;14.90;99.90;;;;;;5037424;28;19932;-72
2022/06/07 09:44:02;;;;;;;;;;;14.60;99.90;;;;;;5051302;28;20369;-71
2022/06/07 09:46:30;;;;;;;;;;;14.50;99.90;;;;;;5049856;28;19945;-72
2022/06/07 09:48:57;;;;;;;;;;;14.40;99.90;;;;;;5052180;28;19921;-71
2022/06/07 09:51:27;;;;;;;;;;;14.60;99.90;;;;;;5057080;28;19921;-71
2022/06/07 09:54:02;;;;;;;;;;;14.80;99.90;;;;;;5057827;28;20311;-71
2022/06/07 09:56:32;;;;;;;;;;;14.90;99.90;;;;;;5053385;28;20308;-70
2022/06/07 09:59:04;;;;;;;;;;;15.00;99.90;;;;;;5049546;28;19943;-71
2022/06/07 10:01:34;;;;;;;;;;;15.10;99.90;;;;;;5053202;28;19928;-72
2022/06/07 10:04:04;;;;;;;;;;;15.30;99.90;;;;;;5051549;28;19921;-70
2022/06/07 10:06:34;;;;;;;;;;;15.50;99.90;;;;;;5039111;28;20343;-70
2022/06/07 10:09:16;;;;;;;;;;;15.60;99.90;;;;;;5051341;28;19933;-70
2022/06/07 10:11:49;;;;;;;;;;;15.50;99.90;;;;;;5050622;28;20440;-70
2022/06/07 10:14:23;;;;;;;;;;;15.40;99.90;;;;;;5053312;28;20332;-71
2022/06/07 10:16:56;;;;;;;;;;;15.40;99.90;;;;;;5034467;28;19931;-70
2022/06/07 10:19:32;;;;;;;;;;;15.60;99.90;;;;;;5062384;28;20003;-71
2022/06/07 10:22:16;;;;;;;;;;;15.70;99.90;;;;;;5073298;28;19966;-70
2022/06/07 10:24:48;;;;;;;;;;;15.90;99.90;;;;;;5070432;28;20361;-70
2022/06/07 10:27:19;;;;;;;;;;;15.90;99.90;;;;;;5073240;28;20380;-70
2022/06/07 10:30:05;;;;;;;;;;;15.80;99.90;;;;;;5072804;28;19973;-70
2022/06/07 10:32:40;;;;;;;;;;;15.90;99.90;;;;;;5056663;28;20034;-71
2022/06/07 10:35:11;;;;;;;;;;;15.70;99.90;;;;;;5077428;28;19924;-71
2022/06/07 10:37:40;;;;;;;;;;;15.70;99.90;;;;;;5076387;28;20003;-71
2022/06/07 10:40:13;;;;;;;;;;;15.70;99.90;;;;;;5058348;28;19920;-71
2022/06/07 10:42:43;;;;;;;;;;;15.70;99.90;;;;;;5076917;28;19974;-71
2022/06/07 10:45:14;;;;;;;;;;;15.60;99.90;;;;;;5076437;28;20376;-71
2022/06/07 10:47:44;;;;;;;;;;;15.70;99.90;;;;;;5058476;28;20384;-71
2022/06/07 10:50:16;;;;;;;;;;;15.60;99.90;;;;;;5059480;28;19927;-71
2022/06/07 10:52:45;;;;;;;;;;;15.70;99.90;;;;;;5055923;28;20453;-71
2022/06/07 10:55:19;;;;;;;;;;;15.60;99.90;;;;;;5040618;28;19921;-71
2022/06/07 10:57:51;;;;;;;;;;;15.50;99.90;;;;;;5066649;28;19920;-71
2022/06/07 11:00:25;;;;;;;;;;;15.50;99.90;;;;;;5057985;28;19920;-71
2022/06/07 11:02:56;;;;;;;;;;;15.60;99.90;;;;;;5038811;28;19927;-71
2022/06/07 11:11:02;;;;;;;;;;;15.90;99.90;;;;;;5038335;28;19920;-70
2022/06/07 11:13:34;;;;;;;;;;;16.20;99.90;;;;;;5039040;28;19928;-71
2022/06/07 11:16:04;;;;;;;;;;;16.40;99.90;;;;;;5039042;28;19925;-71
2022/06/07 11:18:31;;;;;;;;;;;16.60;99.90;;;;;;5037915;28;20016;-70
2022/06/07 11:21:10;;;;;;;;;;;16.90;99.90;;;;;;5045517;28;19924;-71
2022/06/07 11:23:38;;;;;;;;;;;17.20;99.90;;;;;;5096377;28;19920;-71
2022/06/07 11:26:07;;;;;;;;;;;17.40;99.90;;;;;;5061744;28;19971;-71
2022/06/07 11:28:35;;;;;;;;;;;17.60;99.90;;;;;;5055207;28;19931;-71
2022/06/07 11:31:02;;;;;;;;;;;17.40;99.90;;;;;;5037159;28;20339;-71
2022/06/07 11:33:38;;;;;;;;;;;17.40;99.90;;;;;;5063469;28;20334;-71
2022/06/07 11:36:07;;;;;;;;;;;17.50;99.90;;;;;;5077866;28;19919;-70
2022/06/07 11:38:35;;;;;;;;;;;17.70;99.90;;;;;;5083061;28;19978;-71
2022/06/07 11:41:39;;;;;;;;;;;18.00;99.90;;;;;;5057906;28;19924;-71
2022/06/07 11:44:27;;;;;;;;;;;18.30;99.90;;;;;;5057108;28;19928;-72
2022/06/07 11:46:57;;;;;;;;;;;18.90;99.90;;;;;;5037889;28;19947;-71
2022/06/07 11:49:39;;;;;;;;;;;19.40;99.90;;;;;;5054898;28;19920;-71
2022/06/07 11:52:19;;;;;;;;;;;19.80;99.90;;;;;;5056784;28;19928;-71
2022/06/07 11:54:50;;;;;;;;;;;20.10;99.90;;;;;;5055287;28;20365;-72
2022/06/07 11:57:19;;;;;;;;;;;20.00;99.90;;;;;;5037445;28;19921;-72
2022/06/07 11:59:49;;;;;;;;;;;19.80;99.90;;;;;;5055560;28;20289;-71
2022/06/07 12:02:27;;;;;;;;;;;19.90;99.90;;;;;;5036827;28;19924;-71
2022/06/07 12:04:56;;;;;;;;;;;20.00;99.90;;;;;;5057350;28;20407;-71
2022/06/07 12:07:25;;;;;;;;;;;19.60;99.90;;;;;;5044315;28;20511;-71
2022/06/07 12:09:53;;;;;;;;;;;19.40;99.90;;;;;;5052652;28;19928;-71
2022/06/07 12:12:22;;;;;;;;;;;19.30;99.90;;;;;;5044536;28;20383;-72
2022/06/07 12:14:52;;;;;;;;;;;19.40;99.90;;;;;;5053327;28;19925;-72
2022/06/07 12:17:24;;;;;;;;;;;19.50;99.90;;;;;;5051004;28;19932;-72
2022/06/07 12:19:50;;;;;;;;;;;19.70;99.90;;;;;;5044123;28;19959;-72
2022/06/07 12:22:19;;;;;;;;;;;19.50;99.90;;;;;;5044888;28;19921;-71
2022/06/07 12:24:47;;;;;;;;;;;19.60;99.90;;;;;;5034586;28;19924;-72
2022/06/07 12:27:20;;;;;;;;;;;19.60;99.90;;;;;;5039953;28;19925;-71
2022/06/07 12:29:47;;;;;;;;;;;19.30;99.90;;;;;;5053064;28;20335;-72
2022/06/07 12:32:20;;;;;;;;;;;19.10;99.90;;;;;;5049036;28;20384;-72
2022/06/07 12:34:47;;;;;;;;;;;18.60;99.90;;;;;;5053224;28;20004;-72
2022/06/07 12:37:24;;;;;;;;;;;18.50;99.90;;;;;;5067567;28;20376;-71
2022/06/07 12:39:52;;;;;;;;;;;18.30;99.90;;;;;;5072324;28;19921;-72
2022/06/07 12:42:21;;;;;;;;;;;18.20;99.90;;;;;;5069660;28;20336;-71
2022/06/07 12:44:50;;;;;;;;;;;18.20;99.90;;;;;;5057979;28;19920;-72
2022/06/07 12:47:26;;;;;;;;;;;17.90;99.90;;;;;;5046809;28;19928;-71
2022/06/07 12:49:53;;;;;;;;;;;17.60;99.90;;;;;;5054238;28;19928;-70
2022/06/07 12:52:21;;;;;;;;;;;17.50;99.90;;;;;;5057159;28;19989;-71
2022/06/07 12:54:48;;;;;;;;;;;17.50;99.90;;;;;;5067066;28;19990;-72
2022/06/07 12:57:16;;;;;;;;;;;17.40;99.90;;;;;;5065540;28;20691;-71
2022/06/07 12:59:51;;;;;;;;;;;17.40;99.90;;;;;;5051388;28;19951;-71
2022/06/07 13:02:22;;;;;;;;;;;17.30;99.90;;;;;;5048850;28;19925;-72
2022/06/07 13:04:51;;;;;;;;;;;18.00;99.90;;;;;;5041623;28;19936;-71
2022/06/07 13:07:20;;;;;;;;;;;19.10;99.90;;;;;;5045354;28;19974;-70
2022/06/07 13:09:48;;;;;;;;;;;19.80;99.90;;;;;;5066945;28;20379;-71
2022/06/07 13:12:18;;;;;;;;;;;20.00;99.90;;;;;;5059344;28;19972;-71
2022/06/07 13:14:45;;;;;;;;;;;20.20;99.90;;;;;;5046561;28;19920;-72
2022/06/07 13:17:13;;;;;;;;;;;20.00;99.90;;;;;;5049836;28;19964;-72
2022/06/07 13:19:41;;;;;;;;;;;20.10;99.90;;;;;;5053683;28;19927;-71
2022/06/07 13:22:14;;;;;;;;;;;20.00;99.90;;;;;;5054568;28;19947;-71
2022/06/07 13:24:42;;;;;;;;;;;19.60;99.90;;;;;;5055604;28;20003;-72
2022/06/07 13:27:28;;;;;;;;;;;19.40;99.90;;;;;;5072996;28;20487;-71
2022/06/07 13:29:55;;;;;;;;;;;19.10;99.90;;;;;;5055059;28;19983;-71
2022/06/07 13:32:23;;;;;;;;;;;18.80;99.90;;;;;;5051690;28;20372;-71
2022/06/07 13:34:52;;;;;;;;;;;18.70;99.90;;;;;;5051521;28;20450;-71
2022/06/07 13:37:22;;;;;;;;;;;18.50;99.90;;;;;;5043255;28;19979;-71
2022/06/07 13:40:03;;;;;;;;;;;18.30;99.90;;;;;;5042924;28;20517;-71
2022/06/07 13:42:31;;;;;;;;;;;18.20;99.90;;;;;;5051508;28;19928;-70
2022/06/07 13:45:00;;;;;;;;;;;18.20;99.90;;;;;;5051926;28;19943;-70
2022/06/07 13:47:31;;;;;;;;;;;18.20;99.90;;;;;;5051210;28;19960;-71
2022/06/07 13:55:45;;;;;;;;;;;18.10;99.90;;;;;;5071092;28;20021;-71
2022/06/07 13:58:12;;;;;;;;;;;18.10;99.90;;;;;;5071626;28;19920;-72
2022/06/07 14:00:39;;;;;;;;;;;18.20;99.90;;;;;;5040222;28;19999;-71
2022/06/07 14:03:14;;;;;;;;;;;18.10;99.90;;;;;;5052644;28;19920;-71
2022/06/07 14:05:41;;;;;;;;;;;18.10;99.90;;;;;;5036314;28;19920;-70
2022/06/07 14:08:13;;;;;;;;;;;18.20;99.90;;;;;;5054603;28;19928;-72
2022/06/07 14:10:39;;;;;;;;;;;18.10;99.90;;;;;;5053044;28;19921;-71
2022/06/07 14:13:06;;;;;;;;;;;18.20;99.90;;;;;;5053537;28;19974;-71
2022/06/07 14:15:34;;;;;;;;;;;18.40;99.90;;;;;;5038193;28;19990;-72
2022/06/07 14:18:02;;;;;;;;;;;18.40;99.90;;;;;;5056825;28;19920;-71
2022/06/07 14:20:32;;;;;;;;;;;18.20;99.90;;;;;;5038838;28;19925;-72
2022/06/07 14:22:59;;;;;;;;;;;18.10;99.90;;;;;;5056451;28;19920;-71
2022/06/07 14:25:28;;;;;;;;;;;18.10;99.90;;;;;;5037690;28;19970;-71
2022/06/07 14:27:55;;;;;;;;;;;18.10;99.90;;;;;;5044801;28;19995;-71
2022/06/07 14:30:22;;;;;;;;;;;18.10;99.90;;;;;;5039979;28;19988;-71
2022/06/07 14:32:51;;;;;;;;;;;18.40;99.90;;;;;;5053490;28;20373;-72
2022/06/07 14:35:19;;;;;;;;;;;18.60;99.90;;;;;;5055741;28;20007;-72
2022/06/07 14:37:46;;;;;;;;;;;18.60;99.90;;;;;;5046928;28;20395;-71
2022/06/07 14:40:17;;;;;;;;;;;18.50;99.90;;;;;;5056897;28;20399;-70
2022/06/07 14:42:45;;;;;;;;;;;18.60;99.90;;;;;;5040121;28;19924;-71
2022/06/07 14:45:12;;;;;;;;;;;18.60;99.90;;;;;;5056097;28;19932;-71
2022/06/07 14:47:39;;;;;;;;;;;18.70;99.90;;;;;;5038727;28;19921;-72
2022/06/07 14:50:07;;;;;;;;;;;18.80;99.90;;;;;;5056169;28;19927;-72
2022/06/07 14:52:33;;;;;;;;;;;19.20;99.90;;;;;;5038115;28;19921;-71
2022/06/07 14:55:00;;;;;;;;;;;18.90;99.90;;;;;;5038920;28;19920;-71